createdAt,value
2018-09-04T00:00:33.884Z,27.63
2018-09-04T00:03:01.950Z,29.87
2018-09-04T00:05:30.019Z,26.87
2018-09-04T00:07:58.072Z,25.93
2018-09-04T00:10:26.120Z,27.53
2018-09-04T00:12:54.152Z,25.10
2018-09-04T00:15:22.261Z,27.90
2018-09-04T00:17:50.279Z,30.10
2018-09-04T00:20:18.352Z,27.53
2018-09-04T00:22:46.551Z,26.33
2018-09-04T00:25:14.604Z,25.80
2018-09-04T00:27:42.716Z,31.40
2018-09-04T00:30:10.818Z,27.43
2018-09-04T00:32:38.842Z,29.80
2018-09-04T00:35:06.929Z,33.13
2018-09-04T00:37:34.992Z,26.97
2018-09-04T00:40:03.122Z,24.33
2018-09-04T00:42:31.244Z,24.37
2018-09-04T00:44:59.225Z,32.23
2018-09-04T00:47:27.332Z,30.40
2018-09-04T00:49:55.387Z,25.53
2018-09-04T00:52:23.434Z,25.17
2018-09-04T00:54:51.488Z,21.93
2018-09-04T00:57:19.506Z,26.33
2018-09-04T00:59:47.542Z,26.30
2018-09-04T01:02:15.596Z,27.47
2018-09-04T01:04:45.186Z,26.20
2018-09-04T01:07:13.365Z,29.63
2018-09-04T01:09:41.376Z,27.00
2018-09-04T01:12:09.486Z,35.47
2018-09-04T01:14:37.544Z,27.97
2018-09-04T01:17:05.601Z,26.87
2018-09-04T01:19:33.697Z,26.30
2018-09-04T01:22:01.785Z,25.13
2018-09-04T01:24:29.836Z,24.93
2018-09-04T01:26:57.889Z,25.20
2018-09-04T01:29:25.964Z,26.67
2018-09-04T01:31:54.013Z,28.43
2018-09-04T01:34:22.062Z,26.83
2018-09-04T01:36:50.092Z,25.83
2018-09-04T01:39:18.352Z,26.87
2018-09-04T01:41:46.381Z,28.87
2018-09-04T01:44:14.425Z,22.43
2018-09-04T01:46:42.519Z,26.00
2018-09-04T01:49:10.553Z,26.13
2018-09-04T01:51:38.619Z,27.97
2018-09-04T01:54:06.661Z,28.80
2018-09-04T01:56:34.697Z,27.10
2018-09-04T01:59:02.942Z,27.13
2018-09-04T02:01:31.072Z,26.13
2018-09-04T02:03:59.113Z,23.97
2018-09-04T02:06:27.253Z,23.73
2018-09-04T02:08:55.297Z,23.37
2018-09-04T02:11:23.380Z,21.87
2018-09-04T02:16:25.820Z,25.23
2018-09-04T02:18:53.849Z,25.93
2018-09-04T02:21:22.026Z,31.80
2018-09-04T02:23:50.068Z,27.20
2018-09-04T02:26:18.078Z,27.87
2018-09-04T02:28:46.151Z,28.40
2018-09-04T02:31:14.191Z,25.97
2018-09-04T02:33:42.290Z,30.57
2018-09-04T02:36:10.335Z,33.70
2018-09-04T02:38:38.460Z,33.40
2018-09-04T02:41:06.535Z,29.90
2018-09-04T02:43:35.405Z,28.90
2018-09-04T02:46:03.489Z,27.00
2018-09-04T02:48:31.541Z,29.37
2018-09-04T02:50:59.604Z,25.93
2018-09-04T02:53:34.320Z,27.83
2018-09-04T02:56:02.968Z,28.40
2018-09-04T02:58:31.000Z,25.83
2018-09-04T03:00:59.153Z,28.63
2018-09-04T03:03:27.253Z,28.50
2018-09-04T03:05:55.481Z,29.83
2018-09-04T03:08:23.660Z,26.70
2018-09-04T03:10:51.717Z,26.83
2018-09-04T03:13:19.751Z,27.17
2018-09-04T03:15:47.798Z,27.37
2018-09-04T03:18:16.996Z,30.00
2018-09-04T03:20:45.084Z,26.60
2018-09-04T03:23:13.157Z,26.63
2018-09-04T03:25:41.252Z,25.97
2018-09-04T03:28:09.279Z,33.70
2018-09-04T03:30:37.292Z,32.10
2018-09-04T03:33:05.361Z,24.30
2018-09-04T03:35:33.432Z,25.50
2018-09-04T03:38:01.488Z,23.43
2018-09-04T03:40:29.552Z,29.93
2018-09-04T03:42:57.622Z,32.47
2018-09-04T03:45:25.654Z,31.00
2018-09-04T03:47:53.696Z,31.07
2018-09-04T03:50:21.736Z,30.83
2018-09-04T03:52:49.817Z,36.63
2018-09-04T03:55:17.871Z,32.17
2018-09-04T03:57:45.942Z,32.70
2018-09-04T04:00:14.077Z,33.33
2018-09-04T04:02:42.103Z,31.27
2018-09-04T04:05:10.143Z,29.43
2018-09-04T04:07:38.179Z,34.17
2018-09-04T04:10:06.321Z,29.07
2018-09-04T04:12:34.354Z,36.80
2018-09-04T04:15:02.434Z,37.43
2018-09-04T04:17:30.436Z,31.77
2018-09-04T04:19:58.537Z,32.33
2018-09-04T04:22:26.589Z,32.30
2018-09-04T04:24:54.696Z,33.00
2018-09-04T04:27:22.730Z,26.50
2018-09-04T04:29:50.782Z,29.37
2018-09-04T04:32:18.816Z,27.60
2018-09-04T04:34:47.592Z,26.57
2018-09-04T04:37:15.618Z,31.77
2018-09-04T04:39:43.704Z,33.27
2018-09-04T04:42:11.736Z,31.80
2018-09-04T04:44:39.790Z,32.20
2018-09-04T04:47:07.869Z,36.10
2018-09-04T04:49:35.901Z,32.00
2018-09-04T04:52:03.975Z,37.13
2018-09-04T04:54:32.166Z,31.77
2018-09-04T04:57:00.217Z,41.47
2018-09-04T04:59:28.375Z,34.50
2018-09-04T05:01:56.426Z,42.53
2018-09-04T05:04:24.472Z,40.53
2018-09-04T05:06:52.572Z,36.03
2018-09-04T05:09:20.576Z,37.43
2018-09-04T05:11:48.646Z,41.17
2018-09-04T05:14:16.743Z,35.97
2018-09-04T05:16:44.797Z,41.97
2018-09-04T05:19:12.817Z,31.43
2018-09-04T05:21:40.889Z,29.17
2018-09-04T05:24:08.905Z,34.50
2018-09-04T05:26:36.948Z,40.47
2018-09-04T05:29:05.033Z,31.73
2018-09-04T05:31:33.216Z,33.93
2018-09-04T05:34:01.336Z,30.33
2018-09-04T05:36:29.393Z,39.10
2018-09-04T05:38:57.433Z,27.13
2018-09-04T05:41:25.597Z,30.63
2018-09-04T05:43:53.641Z,26.07
2018-09-04T05:47:25.204Z,29.57
2018-09-04T05:49:53.229Z,31.53
2018-09-04T05:52:21.292Z,34.73
2018-09-04T05:54:49.431Z,30.93
2018-09-04T05:57:17.493Z,29.40
2018-09-04T05:59:45.588Z,35.53
2018-09-04T06:02:13.626Z,26.73
2018-09-04T06:04:41.679Z,31.13
2018-09-04T06:07:09.714Z,33.20
2018-09-04T06:09:37.726Z,32.47
2018-09-04T06:12:06.038Z,30.10
2018-09-04T06:14:34.084Z,31.93
2018-09-04T06:17:02.160Z,33.33
2018-09-04T06:19:30.189Z,43.73
2018-09-04T06:21:58.244Z,34.50
2018-09-04T06:24:26.341Z,41.43
2018-09-04T06:26:54.366Z,31.60
2018-09-04T06:29:22.465Z,30.60
2018-09-04T06:31:50.445Z,25.63
2018-09-04T06:34:18.523Z,35.43
2018-09-04T06:36:46.588Z,28.10
2018-09-04T06:39:14.602Z,36.47
2018-09-04T06:41:42.638Z,37.00
2018-09-04T06:44:10.729Z,36.27
2018-09-04T06:46:38.852Z,40.70
2018-09-04T06:49:06.852Z,45.40
2018-09-04T06:51:34.885Z,24.00
2018-09-04T06:54:02.944Z,24.03
2018-09-04T06:56:31.033Z,28.07
2018-09-04T06:58:59.109Z,32.03
2018-09-04T07:01:27.169Z,37.93
2018-09-04T07:03:55.201Z,24.27
2018-09-04T07:06:23.262Z,33.73
2018-09-04T07:08:51.320Z,38.77
2018-09-04T07:11:19.461Z,37.33
2018-09-04T07:13:47.561Z,37.63
2018-09-04T07:16:15.593Z,35.27
2018-09-04T07:18:43.605Z,32.10
2018-09-04T07:21:11.633Z,21.60
2018-09-04T07:23:39.664Z,38.20
2018-09-04T07:26:07.712Z,32.53
2018-09-04T07:28:35.777Z,22.40
2018-09-04T07:31:03.813Z,21.33
2018-09-04T07:33:31.866Z,31.87
2018-09-04T07:35:59.933Z,26.43
2018-09-04T07:38:27.974Z,27.50
2018-09-04T07:40:56.028Z,31.90
2018-09-04T07:43:24.235Z,31.27
2018-09-04T07:45:52.418Z,42.63
2018-09-04T07:48:20.450Z,26.00
2018-09-04T07:50:48.546Z,39.67
2018-09-04T07:53:16.617Z,29.23
2018-09-04T07:55:44.726Z,33.80
2018-09-04T07:58:12.770Z,43.83
2018-09-04T08:00:40.833Z,39.63
2018-09-04T08:03:08.870Z,23.70
2018-09-04T08:05:36.957Z,31.73
2018-09-04T08:08:04.992Z,36.77
2018-09-04T08:10:33.062Z,28.83
2018-09-04T08:13:01.775Z,27.77
2018-09-04T08:15:29.815Z,29.27
2018-09-04T08:17:57.890Z,44.03
2018-09-04T08:20:25.961Z,38.67
2018-09-04T08:22:53.992Z,40.20
2018-09-04T08:25:22.068Z,55.23
2018-09-04T08:27:50.108Z,45.63
2018-09-04T08:30:18.149Z,43.30
2018-09-04T08:32:46.219Z,29.10
2018-09-04T08:35:14.288Z,35.63
2018-09-04T08:37:42.314Z,37.73
2018-09-04T08:40:10.445Z,58.40
2018-09-04T08:42:38.381Z,47.33
2018-09-04T08:45:06.453Z,25.93
2018-09-04T08:47:34.467Z,47.77
2018-09-04T08:50:02.553Z,51.60
2018-09-04T08:52:30.593Z,52.30
2018-09-04T08:54:58.621Z,30.20
2018-09-04T08:57:26.647Z,60.03
2018-09-04T08:59:54.673Z,59.37
2018-09-04T09:02:22.706Z,45.00
2018-09-04T09:04:50.771Z,49.57
2018-09-04T09:07:18.816Z,34.17
2018-09-04T09:09:46.885Z,41.17
2018-09-04T09:12:15.005Z,48.97
2018-09-04T09:14:43.068Z,60.23
2018-09-04T09:17:11.119Z,55.97
2018-09-04T09:19:39.149Z,50.03
2018-09-04T09:22:07.200Z,63.10
2018-09-04T09:24:35.222Z,60.27
2018-09-04T09:27:03.256Z,45.13
2018-09-04T09:29:31.354Z,52.17
2018-09-04T09:31:59.417Z,38.03
2018-09-04T09:34:27.432Z,60.03
2018-09-04T09:36:55.553Z,50.73
2018-09-04T09:39:23.532Z,61.83
2018-09-04T09:41:51.580Z,58.37
2018-09-04T09:44:19.614Z,56.43
2018-09-04T09:46:47.679Z,64.17
2018-09-04T09:49:15.710Z,51.67
2018-09-04T09:51:43.750Z,51.77
2018-09-04T09:54:11.789Z,60.17
2018-09-04T09:56:39.851Z,50.50
2018-09-04T09:59:07.890Z,57.20
2018-09-04T10:01:35.963Z,53.87
2018-09-04T10:04:04.092Z,46.20
2018-09-04T10:06:32.297Z,36.63
2018-09-04T10:09:00.615Z,55.03
2018-09-04T10:11:28.704Z,55.87
2018-09-04T10:13:56.761Z,48.83
2018-09-04T10:16:24.775Z,48.80
2018-09-04T10:18:52.909Z,57.27
2018-09-04T10:21:20.918Z,43.70
2018-09-04T10:23:48.989Z,50.57
2018-09-04T10:26:17.107Z,42.10
2018-09-04T10:28:45.085Z,52.93
2018-09-04T10:31:13.116Z,52.97
2018-09-04T10:33:41.232Z,47.30
2018-09-04T10:36:09.318Z,43.27
2018-09-04T10:38:37.353Z,52.70
2018-09-04T10:41:05.437Z,56.90
2018-09-04T10:43:33.624Z,49.57
2018-09-04T10:46:01.752Z,53.43
2018-09-04T10:48:30.124Z,51.93
2018-09-04T10:50:58.163Z,53.17
2018-09-04T10:53:26.245Z,50.13
2018-09-04T10:55:54.311Z,49.40
2018-09-04T10:58:22.358Z,46.13
2018-09-04T11:00:50.448Z,33.17
2018-09-04T11:03:18.506Z,47.33
2018-09-04T11:05:46.552Z,49.70
2018-09-04T11:08:14.632Z,38.63
2018-09-04T11:10:42.666Z,41.60
2018-09-04T11:13:10.753Z,40.37
2018-09-04T11:15:38.843Z,42.17
2018-09-04T11:18:06.937Z,40.47
2018-09-04T11:20:35.022Z,38.00
2018-09-04T11:23:03.097Z,40.43
2018-09-04T11:25:31.210Z,37.33
2018-09-04T11:27:59.246Z,31.20
2018-09-04T11:30:27.346Z,37.00
2018-09-04T11:32:55.429Z,37.83
2018-09-04T11:35:23.504Z,33.77
2018-09-04T11:37:51.507Z,35.93
2018-09-04T11:40:19.589Z,29.77
2018-09-04T11:42:47.646Z,37.63
2018-09-04T11:45:15.675Z,34.10
2018-09-04T11:47:43.729Z,38.97
2018-09-04T11:50:11.764Z,35.60
2018-09-04T11:52:39.789Z,37.37
2018-09-04T11:55:08.125Z,35.53
2018-09-04T11:57:36.167Z,41.70
2018-09-04T12:00:05.281Z,43.77
2018-09-04T12:02:33.456Z,35.67
2018-09-04T12:05:01.486Z,33.77
2018-09-04T12:07:29.565Z,31.40
2018-09-04T12:09:57.597Z,29.63
2018-09-04T12:12:25.764Z,28.60
2018-09-04T12:14:53.961Z,31.03
2018-09-04T12:17:22.129Z,29.67
2018-09-04T12:19:55.631Z,31.63
2018-09-04T12:22:23.356Z,32.27
2018-09-04T12:24:51.406Z,30.60
2018-09-04T12:27:19.477Z,37.83
2018-09-04T12:29:47.446Z,40.67
2018-09-04T12:32:15.480Z,44.30
2018-09-04T12:34:43.609Z,44.53
2018-09-04T12:37:11.633Z,43.70
2018-09-04T12:39:39.665Z,43.10
2018-09-04T12:42:07.742Z,40.73
2018-09-04T12:44:35.870Z,40.50
2018-09-04T12:47:04.028Z,38.93
2018-09-04T12:49:32.260Z,37.63
2018-09-04T12:52:00.386Z,38.30
2018-09-04T12:54:28.499Z,40.07
2018-09-04T12:56:56.624Z,41.77
2018-09-04T12:59:24.673Z,38.00
2018-09-04T13:01:52.808Z,38.30
2018-09-04T13:04:20.876Z,39.80
2018-09-04T13:06:48.943Z,36.20
2018-09-04T13:09:17.037Z,39.20
2018-09-04T13:11:45.096Z,34.47
2018-09-04T13:14:13.198Z,32.70
2018-09-04T13:16:41.209Z,36.27
2018-09-04T13:19:09.264Z,33.63
2018-09-04T13:21:39.272Z,33.33
2018-09-04T13:24:20.653Z,33.87
2018-09-04T13:26:48.681Z,30.70
2018-09-04T13:29:16.705Z,31.00
2018-09-04T13:31:44.786Z,28.50
2018-09-04T13:34:13.051Z,28.93
2018-09-04T13:36:41.160Z,27.70
2018-09-04T13:39:09.144Z,28.43
2018-09-04T13:41:37.278Z,31.47
2018-09-04T13:44:05.519Z,29.57
2018-09-04T13:46:33.600Z,29.30
2018-09-04T13:49:01.737Z,28.37
2018-09-04T13:51:29.744Z,27.77
2018-09-04T13:53:57.921Z,27.77
2018-09-04T13:56:25.991Z,30.87
2018-09-04T13:58:54.053Z,27.57
2018-09-04T14:01:22.140Z,28.67
2018-09-04T14:03:50.294Z,29.67
2018-09-04T14:06:18.458Z,28.03
2018-09-04T14:08:46.528Z,28.10
2018-09-04T14:11:14.649Z,28.30
2018-09-04T14:13:42.671Z,26.53
2018-09-04T14:16:12.992Z,30.00
2018-09-04T14:18:41.028Z,29.40
2018-09-04T14:21:09.077Z,28.23
2018-09-04T14:23:37.325Z,30.03
2018-09-04T14:26:05.374Z,29.60
2018-09-04T14:28:41.383Z,29.80
2018-09-04T14:31:01.656Z,31.13
2018-09-04T14:33:29.696Z,28.93
2018-09-04T14:35:57.741Z,30.10
2018-09-04T14:38:25.772Z,29.73
2018-09-04T14:40:53.857Z,28.07
2018-09-04T14:43:21.998Z,27.80
2018-09-04T14:45:50.005Z,28.50
2018-09-04T14:48:18.090Z,27.10
2018-09-04T14:50:46.188Z,25.90
2018-09-04T14:53:14.263Z,28.33
2018-09-04T14:55:42.291Z,26.83
2018-09-04T14:58:10.378Z,25.77
2018-09-04T15:00:38.441Z,27.20
2018-09-04T15:03:06.471Z,30.67
2018-09-04T15:05:34.521Z,28.20
2018-09-04T15:08:02.572Z,27.30
2018-09-04T15:10:30.676Z,30.30
2018-09-04T15:12:58.756Z,31.23
2018-09-04T15:15:26.876Z,28.33
2018-09-04T15:17:54.984Z,28.53
2018-09-04T15:20:23.050Z,27.57
2018-09-04T15:22:51.165Z,27.60
2018-09-04T15:25:19.304Z,30.63
2018-09-04T15:27:47.434Z,33.13
2018-09-04T15:30:15.467Z,32.23
2018-09-04T15:32:43.509Z,31.80
2018-09-04T15:35:11.647Z,28.97
2018-09-04T15:37:39.704Z,30.27
2018-09-04T15:40:07.796Z,30.70
2018-09-04T15:42:35.869Z,30.97
2018-09-04T15:45:04.134Z,32.10
2018-09-04T15:47:32.640Z,33.17
2018-09-04T15:50:00.734Z,28.13
2018-09-04T15:52:28.893Z,32.13
2018-09-04T15:54:56.974Z,32.30
2018-09-04T15:57:25.020Z,31.87
2018-09-04T15:59:53.053Z,30.73
2018-09-04T16:02:21.206Z,32.40
2018-09-04T16:04:49.249Z,26.53
2018-09-04T16:07:17.436Z,26.43
2018-09-04T16:09:45.533Z,31.87
2018-09-04T16:12:13.552Z,27.60
2018-09-04T16:14:42.017Z,26.60
2018-09-04T16:17:10.433Z,30.67
2018-09-04T16:19:38.473Z,31.77
2018-09-04T16:22:06.584Z,35.77
2018-09-04T16:24:34.719Z,34.30
2018-09-04T16:27:03.156Z,33.67
2018-09-04T16:29:31.275Z,36.57
2018-09-04T16:31:59.513Z,30.97
2018-09-04T16:34:27.783Z,28.77
2018-09-04T16:36:55.757Z,24.50
2018-09-04T16:39:24.023Z,22.87
2018-09-04T16:41:52.045Z,21.87
2018-09-04T16:44:20.354Z,21.50
2018-09-04T16:46:48.477Z,20.80
2018-09-04T16:49:16.616Z,18.30
2018-09-04T16:51:44.767Z,17.63
2018-09-04T16:54:12.843Z,15.20
2018-09-04T16:56:40.872Z,16.63
2018-09-04T16:59:09.044Z,16.80
2018-09-04T17:01:37.146Z,16.97
2018-09-04T17:04:05.298Z,16.73
2018-09-04T17:06:33.527Z,18.20
2018-09-04T17:09:01.712Z,21.57
2018-09-04T17:11:29.924Z,22.73
2018-09-04T17:13:58.103Z,21.20
2018-09-04T17:16:26.179Z,22.40
2018-09-04T17:18:54.315Z,20.53
2018-09-04T17:21:22.384Z,22.70
2018-09-04T17:23:50.455Z,21.63
2018-09-04T17:26:18.582Z,21.30
2018-09-04T17:28:47.501Z,22.50
2018-09-04T17:31:15.819Z,23.20
2018-09-04T17:33:43.865Z,23.30
2018-09-04T17:36:12.110Z,21.47
2018-09-04T17:38:40.173Z,21.80
2018-09-04T17:41:08.325Z,21.07
2018-09-04T17:43:36.398Z,22.93
2018-09-04T17:46:04.887Z,21.80
2018-09-04T17:48:33.031Z,21.93
2018-09-04T17:51:01.130Z,20.93
2018-09-04T17:53:29.226Z,21.37
2018-09-04T17:55:57.344Z,21.50
2018-09-04T17:58:25.463Z,20.23
2018-09-04T18:00:53.558Z,19.27
2018-09-04T18:03:21.610Z,19.93
2018-09-04T18:05:49.785Z,19.40
2018-09-04T18:08:17.884Z,20.63
2018-09-04T18:10:45.972Z,20.53
2018-09-04T18:13:14.084Z,19.20
2018-09-04T18:15:42.310Z,17.57
2018-09-04T18:18:10.319Z,16.13
2018-09-04T18:20:38.543Z,17.13
2018-09-04T18:23:06.644Z,18.37
2018-09-04T18:25:34.858Z,16.60
2018-09-04T18:28:02.982Z,16.40
2018-09-04T18:30:40.467Z,16.23
2018-09-04T18:33:08.549Z,16.97
2018-09-04T18:35:36.609Z,15.10
2018-09-04T18:38:11.326Z,16.73
2018-09-04T18:40:39.393Z,14.57
2018-09-04T18:43:07.482Z,19.60
2018-09-04T18:45:47.504Z,19.30
2018-09-04T18:48:15.556Z,14.90
2018-09-04T18:50:43.842Z,18.67
2018-09-04T18:53:11.990Z,18.57
2018-09-04T18:55:40.710Z,18.40
2018-09-04T18:58:08.784Z,21.23
2018-09-04T19:00:36.861Z,17.57
2018-09-04T19:03:04.944Z,22.70
2018-09-04T19:05:33.094Z,22.13
2018-09-04T19:08:01.188Z,22.20
2018-09-04T19:10:29.425Z,19.27
2018-09-04T19:12:57.528Z,16.57
2018-09-04T19:15:25.668Z,17.93
2018-09-04T19:17:53.822Z,19.57
2018-09-04T19:20:21.891Z,16.53
2018-09-04T19:22:49.959Z,18.07
2018-09-04T19:25:18.046Z,18.50
2018-09-04T19:27:46.197Z,16.93
2018-09-04T19:30:32.862Z,17.33
2018-09-04T19:33:01.202Z,16.80
2018-09-04T19:35:29.327Z,13.87
2018-09-04T19:37:57.480Z,13.10
2018-09-04T19:40:25.572Z,19.33
2018-09-04T19:42:53.752Z,15.03
2018-09-04T19:45:21.870Z,18.20
2018-09-04T19:47:49.994Z,18.40
2018-09-04T19:50:18.273Z,17.80
2018-09-04T19:52:47.967Z,19.30
2018-09-04T19:55:16.181Z,19.60
2018-09-04T19:57:44.792Z,20.27
2018-09-04T20:00:13.032Z,19.27
2018-09-04T20:02:41.195Z,17.13
2018-09-04T20:05:09.417Z,17.77
2018-09-04T20:07:37.591Z,14.63
2018-09-04T20:10:06.290Z,17.00
2018-09-04T20:12:34.372Z,19.73
2018-09-04T20:15:02.449Z,25.23
2018-09-04T20:17:30.510Z,26.20
2018-09-04T20:19:58.643Z,24.80
2018-09-04T20:22:26.696Z,17.83
2018-09-04T20:24:54.807Z,26.33
2018-09-04T20:27:22.943Z,27.07
2018-09-04T20:29:51.226Z,25.47
2018-09-04T20:32:19.285Z,26.30
2018-09-04T20:34:47.525Z,27.03
2018-09-04T20:37:15.631Z,27.33
2018-09-04T20:39:43.675Z,26.97
2018-09-04T20:42:11.876Z,28.07
2018-09-04T20:44:40.128Z,28.33
2018-09-04T20:47:08.180Z,26.87
2018-09-04T20:49:36.248Z,29.60
2018-09-04T20:52:04.349Z,27.33
2018-09-04T20:54:32.460Z,28.23
2018-09-04T20:57:24.501Z,21.60
2018-09-04T21:00:03.895Z,28.60
2018-09-04T21:02:43.179Z,29.77
2018-09-04T21:05:22.635Z,28.63
2018-09-04T21:08:00.357Z,30.77
2018-09-04T21:10:28.488Z,27.07
2018-09-04T21:12:56.529Z,27.17
2018-09-04T21:15:24.657Z,24.40
2018-09-04T21:17:52.742Z,28.73
2018-09-04T21:20:20.879Z,21.43
2018-09-04T21:22:48.918Z,24.80
2018-09-04T21:25:17.116Z,26.27
2018-09-04T21:27:45.193Z,29.33
2018-09-04T21:30:13.227Z,31.00
2018-09-04T21:32:41.330Z,30.33
2018-09-04T21:35:09.637Z,23.90
2018-09-04T21:38:13.869Z,26.63
2018-09-04T21:40:42.000Z,31.57
2018-09-04T21:45:44.397Z,32.77
2018-09-04T21:48:12.455Z,32.20
2018-09-04T21:50:40.569Z,33.43
2018-09-04T21:53:08.600Z,26.53
2018-09-04T21:55:36.596Z,26.23
2018-09-04T21:58:05.009Z,27.97
2018-09-04T22:00:33.140Z,26.93
2018-09-04T22:03:01.280Z,29.53
2018-09-04T22:05:29.385Z,21.93
2018-09-04T22:07:57.455Z,20.27
2018-09-04T22:10:25.582Z,28.30
2018-09-04T22:12:53.685Z,31.33
2018-09-04T22:15:25.030Z,31.80
2018-09-04T22:17:53.124Z,24.67
2018-09-04T22:20:21.204Z,28.40
2018-09-04T22:22:49.244Z,26.37
2018-09-04T22:25:17.276Z,24.13
2018-09-04T22:27:45.344Z,24.37
2018-09-04T22:30:13.449Z,25.10
2018-09-04T22:32:41.473Z,22.20
2018-09-04T22:35:09.525Z,36.47
2018-09-04T22:37:37.587Z,27.10
2018-09-04T22:40:06.045Z,26.83
2018-09-04T22:42:34.128Z,24.00
2018-09-04T22:45:02.189Z,26.27
2018-09-04T22:47:30.231Z,27.87
2018-09-04T22:49:58.275Z,38.67
2018-09-04T22:52:26.333Z,29.40
2018-09-04T22:54:54.397Z,26.90
2018-09-04T22:57:22.480Z,26.93
2018-09-04T22:59:50.632Z,37.97
2018-09-04T23:02:18.666Z,34.93
2018-09-04T23:04:46.708Z,36.67
2018-09-04T23:07:14.799Z,37.90
2018-09-04T23:09:42.885Z,28.03
2018-09-04T23:12:10.927Z,30.50
2018-09-04T23:14:38.970Z,30.37
2018-09-04T23:17:06.999Z,28.30
2018-09-04T23:19:35.016Z,28.30
2018-09-04T23:22:03.092Z,24.60
2018-09-04T23:24:31.164Z,31.53
2018-09-04T23:26:59.592Z,28.03
2018-09-04T23:29:27.580Z,30.20
2018-09-04T23:31:55.622Z,30.23
2018-09-04T23:34:23.690Z,30.73
2018-09-04T23:36:51.743Z,28.90
2018-09-04T23:39:19.752Z,28.30
2018-09-04T23:41:47.759Z,37.27
2018-09-04T23:44:15.761Z,37.87
2018-09-04T23:46:43.793Z,36.97
2018-09-04T23:49:11.837Z,26.23
2018-09-04T23:51:39.875Z,29.83
2018-09-04T23:54:07.898Z,27.33
2018-09-04T23:56:35.950Z,26.87
2018-09-04T23:59:04.109Z,26.40
